sensor_id;sensor_type;location;lat;lon;timestamp;temperature;humidity
20483;DHT22;10400;53.198;6.592;2022-08-21T00:01:04;17.80;99.90
20483;DHT22;10400;53.198;6.592;2022-08-21T00:03:32;17.70;99.90
20483;DHT22;10400;53.198;6.592;2022-08-21T00:05:58;17.70;99.90
20483;DHT22;10400;53.198;6.592;2022-08-21T00:08:23;17.70;99.90
20483;DHT22;10400;53.198;6.592;2022-08-21T00:10:49;17.70;99.90
20483;DHT22;10400;53.198;6.592;2022-08-21T00:13:16;17.70;99.90
20483;DHT22;10400;53.198;6.592;2022-08-21T00:15:42;17.60;99.90
20483;DHT22;10400;53.198;6.592;2022-08-21T00:18:09;17.60;99.90
20483;DHT22;10400;53.198;6.592;2022-08-21T00:20:36;17.60;99.90
20483;DHT22;10400;53.198;6.592;2022-08-21T00:23:02;17.60;99.90
20483;DHT22;10400;53.198;6.592;2022-08-21T00:25:28;17.50;99.90
20483;DHT22;10400;53.198;6.592;2022-08-21T00:27:55;17.50;99.90
20483;DHT22;10400;53.198;6.592;2022-08-21T00:30:22;17.50;99.90
20483;DHT22;10400;53.198;6.592;2022-08-21T00:32:50;17.50;99.90
20483;DHT22;10400;53.198;6.592;2022-08-21T00:35:19;17.50;99.90
20483;DHT22;10400;53.198;6.592;2022-08-21T00:37:44;17.40;99.90
20483;DHT22;10400;53.198;6.592;2022-08-21T00:40:20;17.30;99.90
20483;DHT22;10400;53.198;6.592;2022-08-21T00:42:46;17.30;99.90
20483;DHT22;10400;53.198;6.592;2022-08-21T00:45:12;17.30;99.90
20483;DHT22;10400;53.198;6.592;2022-08-21T00:47:38;17.20;99.90
20483;DHT22;10400;53.198;6.592;2022-08-21T00:50:07;17.20;99.90
20483;DHT22;10400;53.198;6.592;2022-08-21T00:52:34;17.20;99.90
20483;DHT22;10400;53.198;6.592;2022-08-21T00:55:01;17.20;99.90
20483;DHT22;10400;53.198;6.592;2022-08-21T00:57:30;17.10;99.90
20483;DHT22;10400;53.198;6.592;2022-08-21T01:00:00;17.10;99.90
20483;DHT22;10400;53.198;6.592;2022-08-21T01:02:26;17.10;99.90
20483;DHT22;10400;53.198;6.592;2022-08-21T01:04:52;17.00;99.90
20483;DHT22;10400;53.198;6.592;2022-08-21T01:07:18;17.00;99.90
20483;DHT22;10400;53.198;6.592;2022-08-21T01:09:46;17.00;99.90
20483;DHT22;10400;53.198;6.592;2022-08-21T01:12:12;17.00;99.90
20483;DHT22;10400;53.198;6.592;2022-08-21T01:14:40;17.00;99.90
20483;DHT22;10400;53.198;6.592;2022-08-21T01:17:08;17.00;99.90
20483;DHT22;10400;53.198;6.592;2022-08-21T01:19:36;16.90;99.90
20483;DHT22;10400;53.198;6.592;2022-08-21T01:22:02;16.90;99.90
20483;DHT22;10400;53.198;6.592;2022-08-21T01:24:28;16.90;99.90
20483;DHT22;10400;53.198;6.592;2022-08-21T01:26:54;16.90;99.90
20483;DHT22;10400;53.198;6.592;2022-08-21T01:31:58;16.90;99.90
20483;DHT22;10400;53.198;6.592;2022-08-21T01:34:24;16.80;99.90
20483;DHT22;10400;53.198;6.592;2022-08-21T01:36:50;16.70;99.90
20483;DHT22;10400;53.198;6.592;2022-08-21T01:39:16;16.60;99.90
20483;DHT22;10400;53.198;6.592;2022-08-21T01:41:42;16.60;99.90
20483;DHT22;10400;53.198;6.592;2022-08-21T01:44:08;16.60;99.90
20483;DHT22;10400;53.198;6.592;2022-08-21T01:46:34;16.50;99.90
20483;DHT22;10400;53.198;6.592;2022-08-21T01:49:00;16.50;99.90
20483;DHT22;10400;53.198;6.592;2022-08-21T01:51:26;16.50;99.90
20483;DHT22;10400;53.198;6.592;2022-08-21T01:53:51;16.40;99.90
20483;DHT22;10400;53.198;6.592;2022-08-21T01:56:17;16.40;99.90
20483;DHT22;10400;53.198;6.592;2022-08-21T01:58:45;16.40;99.90
20483;DHT22;10400;53.198;6.592;2022-08-21T02:01:11;16.40;99.90
20483;DHT22;10400;53.198;6.592;2022-08-21T02:03:37;16.40;99.90
20483;DHT22;10400;53.198;6.592;2022-08-21T02:06:04;16.40;99.90
20483;DHT22;10400;53.198;6.592;2022-08-21T02:08:30;16.40;99.90
20483;DHT22;10400;53.198;6.592;2022-08-21T02:10:56;16.40;99.90
20483;DHT22;10400;53.198;6.592;2022-08-21T02:13:22;16.40;99.90
20483;DHT22;10400;53.198;6.592;2022-08-21T02:15:48;16.40;99.90
20483;DHT22;10400;53.198;6.592;2022-08-21T02:18:14;16.30;99.90
20483;DHT22;10400;53.198;6.592;2022-08-21T02:20:43;16.30;99.90
20483;DHT22;10400;53.198;6.592;2022-08-21T02:23:10;16.30;99.90
20483;DHT22;10400;53.198;6.592;2022-08-21T02:25:37;16.30;99.90
20483;DHT22;10400;53.198;6.592;2022-08-21T02:28:06;16.30;99.90
20483;DHT22;10400;53.198;6.592;2022-08-21T02:30:36;16.30;99.90
20483;DHT22;10400;53.198;6.592;2022-08-21T02:33:04;16.30;99.90
20483;DHT22;10400;53.198;6.592;2022-08-21T02:35:30;16.30;99.90
20483;DHT22;10400;53.198;6.592;2022-08-21T02:38:04;16.30;99.90
20483;DHT22;10400;53.198;6.592;2022-08-21T02:40:32;16.30;99.90
20483;DHT22;10400;53.198;6.592;2022-08-21T02:42:59;16.30;99.90
20483;DHT22;10400;53.198;6.592;2022-08-21T02:45:26;16.30;99.90
20483;DHT22;10400;53.198;6.592;2022-08-21T02:47:56;16.20;99.90
20483;DHT22;10400;53.198;6.592;2022-08-21T02:50:29;16.30;99.90
20483;DHT22;10400;53.198;6.592;2022-08-21T02:52:55;16.20;99.90
20483;DHT22;10400;53.198;6.592;2022-08-21T02:55:23;16.20;99.90
20483;DHT22;10400;53.198;6.592;2022-08-21T02:57:51;16.20;99.90
20483;DHT22;10400;53.198;6.592;2022-08-21T03:00:16;16.20;99.90
20483;DHT22;10400;53.198;6.592;2022-08-21T03:02:42;16.20;99.90
20483;DHT22;10400;53.198;6.592;2022-08-21T03:05:09;16.20;99.90
20483;DHT22;10400;53.198;6.592;2022-08-21T03:07:36;16.20;99.90
20483;DHT22;10400;53.198;6.592;2022-08-21T03:10:03;16.20;99.90
20483;DHT22;10400;53.198;6.592;2022-08-21T03:12:29;16.20;99.90
20483;DHT22;10400;53.198;6.592;2022-08-21T03:14:55;16.20;99.90
20483;DHT22;10400;53.198;6.592;2022-08-21T03:17:20;16.20;99.90
20483;DHT22;10400;53.198;6.592;2022-08-21T03:19:46;16.20;99.90
20483;DHT22;10400;53.198;6.592;2022-08-21T03:22:12;16.10;99.90
20483;DHT22;10400;53.198;6.592;2022-08-21T03:24:37;16.10;99.90
20483;DHT22;10400;53.198;6.592;2022-08-21T03:27:03;16.20;99.90
20483;DHT22;10400;53.198;6.592;2022-08-21T03:29:29;16.10;99.90
20483;DHT22;10400;53.198;6.592;2022-08-21T03:31:54;16.10;99.90
20483;DHT22;10400;53.198;6.592;2022-08-21T03:34:20;16.10;99.90
20483;DHT22;10400;53.198;6.592;2022-08-21T03:36:47;16.20;99.90
20483;DHT22;10400;53.198;6.592;2022-08-21T03:39:14;16.20;99.90
20483;DHT22;10400;53.198;6.592;2022-08-21T03:41:40;16.20;99.90
20483;DHT22;10400;53.198;6.592;2022-08-21T03:44:07;16.10;99.90
20483;DHT22;10400;53.198;6.592;2022-08-21T03:46:32;16.10;99.90
20483;DHT22;10400;53.198;6.592;2022-08-21T03:48:58;16.20;99.90
20483;DHT22;10400;53.198;6.592;2022-08-21T03:51:24;16.10;99.90
20483;DHT22;10400;53.198;6.592;2022-08-21T03:53:49;16.10;99.90
20483;DHT22;10400;53.198;6.592;2022-08-21T03:56:15;16.10;99.90
20483;DHT22;10400;53.198;6.592;2022-08-21T03:58:41;16.10;99.90
20483;DHT22;10400;53.198;6.592;2022-08-21T04:01:07;16.10;99.90
20483;DHT22;10400;53.198;6.592;2022-08-21T04:03:34;16.00;99.90
20483;DHT22;10400;53.198;6.592;2022-08-21T04:06:01;16.10;99.90
20483;DHT22;10400;53.198;6.592;2022-08-21T04:08:26;16.10;99.90
20483;DHT22;10400;53.198;6.592;2022-08-21T04:10:54;16.10;99.90
20483;DHT22;10400;53.198;6.592;2022-08-21T04:13:21;16.10;99.90
20483;DHT22;10400;53.198;6.592;2022-08-21T04:15:48;16.00;99.90
20483;DHT22;10400;53.198;6.592;2022-08-21T04:18:13;16.10;99.90
20483;DHT22;10400;53.198;6.592;2022-08-21T04:20:40;16.10;99.90
20483;DHT22;10400;53.198;6.592;2022-08-21T04:23:07;16.00;99.90
20483;DHT22;10400;53.198;6.592;2022-08-21T04:25:33;16.00;99.90
20483;DHT22;10400;53.198;6.592;2022-08-21T04:27:59;16.00;99.90
20483;DHT22;10400;53.198;6.592;2022-08-21T04:30:25;16.00;99.90
20483;DHT22;10400;53.198;6.592;2022-08-21T04:32:51;16.00;99.90
20483;DHT22;10400;53.198;6.592;2022-08-21T04:35:20;16.00;99.90
20483;DHT22;10400;53.198;6.592;2022-08-21T04:37:46;16.00;99.90
20483;DHT22;10400;53.198;6.592;2022-08-21T04:40:14;16.00;99.90
20483;DHT22;10400;53.198;6.592;2022-08-21T04:42:44;16.00;99.90
20483;DHT22;10400;53.198;6.592;2022-08-21T04:45:18;16.00;99.90
20483;DHT22;10400;53.198;6.592;2022-08-21T04:50:13;16.00;99.90
20483;DHT22;10400;53.198;6.592;2022-08-21T04:52:38;16.00;99.90
20483;DHT22;10400;53.198;6.592;2022-08-21T04:55:04;16.00;99.90
20483;DHT22;10400;53.198;6.592;2022-08-21T04:57:30;16.00;99.90
20483;DHT22;10400;53.198;6.592;2022-08-21T04:59:56;16.10;99.90
20483;DHT22;10400;53.198;6.592;2022-08-21T05:02:21;16.10;99.90
20483;DHT22;10400;53.198;6.592;2022-08-21T05:04:51;16.10;99.90
20483;DHT22;10400;53.198;6.592;2022-08-21T05:07:24;16.10;99.90
20483;DHT22;10400;53.198;6.592;2022-08-21T05:09:52;16.10;99.90
20483;DHT22;10400;53.198;6.592;2022-08-21T05:12:18;16.10;99.90
20483;DHT22;10400;53.198;6.592;2022-08-21T05:14:44;16.10;99.90
20483;DHT22;10400;53.198;6.592;2022-08-21T05:17:10;16.10;99.90
20483;DHT22;10400;53.198;6.592;2022-08-21T05:19:36;16.10;99.90
20483;DHT22;10400;53.198;6.592;2022-08-21T05:22:01;16.20;99.90
20483;DHT22;10400;53.198;6.592;2022-08-21T05:24:27;16.20;99.90
20483;DHT22;10400;53.198;6.592;2022-08-21T05:26:53;16.30;99.90
20483;DHT22;10400;53.198;6.592;2022-08-21T05:29:19;16.30;99.90
20483;DHT22;10400;53.198;6.592;2022-08-21T05:31:46;16.40;99.90
20483;DHT22;10400;53.198;6.592;2022-08-21T05:34:13;16.40;99.90
20483;DHT22;10400;53.198;6.592;2022-08-21T05:36:39;16.50;99.90
20483;DHT22;10400;53.198;6.592;2022-08-21T05:39:05;16.60;99.90
20483;DHT22;10400;53.198;6.592;2022-08-21T05:41:30;16.60;99.90
20483;DHT22;10400;53.198;6.592;2022-08-21T05:43:56;16.70;99.90
20483;DHT22;10400;53.198;6.592;2022-08-21T05:46:21;16.80;99.90
20483;DHT22;10400;53.198;6.592;2022-08-21T05:48:47;16.80;99.90
20483;DHT22;10400;53.198;6.592;2022-08-21T05:51:14;16.90;99.90
20483;DHT22;10400;53.198;6.592;2022-08-21T05:53:42;16.90;99.90
20483;DHT22;10400;53.198;6.592;2022-08-21T05:56:08;16.90;99.90
20483;DHT22;10400;53.198;6.592;2022-08-21T05:58:34;17.00;99.90
20483;DHT22;10400;53.198;6.592;2022-08-21T06:01:01;17.00;99.90
20483;DHT22;10400;53.198;6.592;2022-08-21T06:03:36;17.00;99.90
20483;DHT22;10400;53.198;6.592;2022-08-21T06:06:02;17.10;99.90
20483;DHT22;10400;53.198;6.592;2022-08-21T06:08:28;17.20;99.90
20483;DHT22;10400;53.198;6.592;2022-08-21T06:10:56;17.30;99.90
20483;DHT22;10400;53.198;6.592;2022-08-21T06:13:23;17.30;99.90
20483;DHT22;10400;53.198;6.592;2022-08-21T06:15:49;17.40;99.90
20483;DHT22;10400;53.198;6.592;2022-08-21T06:18:16;17.60;99.90
20483;DHT22;10400;53.198;6.592;2022-08-21T06:20:42;17.70;99.90
20483;DHT22;10400;53.198;6.592;2022-08-21T06:23:08;17.80;99.90
20483;DHT22;10400;53.198;6.592;2022-08-21T06:25:33;17.80;99.90
20483;DHT22;10400;53.198;6.592;2022-08-21T06:28:05;17.90;99.90
20483;DHT22;10400;53.198;6.592;2022-08-21T06:30:31;17.90;99.90
20483;DHT22;10400;53.198;6.592;2022-08-21T06:32:57;18.00;99.90
20483;DHT22;10400;53.198;6.592;2022-08-21T06:35:23;18.10;99.90
20483;DHT22;10400;53.198;6.592;2022-08-21T06:37:50;18.10;99.90
20483;DHT22;10400;53.198;6.592;2022-08-21T06:40:16;18.20;99.90
20483;DHT22;10400;53.198;6.592;2022-08-21T06:42:42;18.10;99.90
20483;DHT22;10400;53.198;6.592;2022-08-21T06:45:08;18.10;99.90
20483;DHT22;10400;53.198;6.592;2022-08-21T06:47:33;18.20;99.90
20483;DHT22;10400;53.198;6.592;2022-08-21T06:49:59;18.30;99.90
20483;DHT22;10400;53.198;6.592;2022-08-21T06:52:25;18.30;99.90
20483;DHT22;10400;53.198;6.592;2022-08-21T06:54:50;18.40;99.90
20483;DHT22;10400;53.198;6.592;2022-08-21T06:57:16;18.50;99.90
20483;DHT22;10400;53.198;6.592;2022-08-21T06:59:41;18.60;99.90
20483;DHT22;10400;53.198;6.592;2022-08-21T07:02:07;18.80;99.90
20483;DHT22;10400;53.198;6.592;2022-08-21T07:04:33;18.80;99.90
20483;DHT22;10400;53.198;6.592;2022-08-21T07:06:59;18.90;99.90
20483;DHT22;10400;53.198;6.592;2022-08-21T07:09:24;19.00;99.90
20483;DHT22;10400;53.198;6.592;2022-08-21T07:11:53;18.90;99.90
20483;DHT22;10400;53.198;6.592;2022-08-21T07:14:19;19.00;99.90
20483;DHT22;10400;53.198;6.592;2022-08-21T07:16:45;19.10;99.90
20483;DHT22;10400;53.198;6.592;2022-08-21T07:19:10;19.20;99.90
20483;DHT22;10400;53.198;6.592;2022-08-21T07:21:36;19.40;99.90
20483;DHT22;10400;53.198;6.592;2022-08-21T07:24:02;19.40;99.90
20483;DHT22;10400;53.198;6.592;2022-08-21T07:26:28;19.60;99.90
20483;DHT22;10400;53.198;6.592;2022-08-21T07:28:54;19.60;99.90
20483;DHT22;10400;53.198;6.592;2022-08-21T07:31:22;19.70;99.90
20483;DHT22;10400;53.198;6.592;2022-08-21T07:33:48;19.80;99.90
20483;DHT22;10400;53.198;6.592;2022-08-21T07:36:14;19.80;99.90
20483;DHT22;10400;53.198;6.592;2022-08-21T07:38:40;20.00;99.90
20483;DHT22;10400;53.198;6.592;2022-08-21T07:41:22;20.00;99.90
20483;DHT22;10400;53.198;6.592;2022-08-21T07:43:48;20.10;99.90
20483;DHT22;10400;53.198;6.592;2022-08-21T07:46:14;20.10;99.90
20483;DHT22;10400;53.198;6.592;2022-08-21T07:48:40;20.10;99.90
20483;DHT22;10400;53.198;6.592;2022-08-21T07:51:09;20.20;99.90
20483;DHT22;10400;53.198;6.592;2022-08-21T07:53:35;20.30;99.90
20483;DHT22;10400;53.198;6.592;2022-08-21T07:56:01;20.50;99.90
20483;DHT22;10400;53.198;6.592;2022-08-21T07:58:26;20.50;99.90
20483;DHT22;10400;53.198;6.592;2022-08-21T08:00:52;20.50;99.90
20483;DHT22;10400;53.198;6.592;2022-08-21T08:03:18;20.60;99.90
20483;DHT22;10400;53.198;6.592;2022-08-21T08:05:44;20.50;99.90
20483;DHT22;10400;53.198;6.592;2022-08-21T08:08:09;20.70;99.90
20483;DHT22;10400;53.198;6.592;2022-08-21T08:10:36;20.50;99.90
20483;DHT22;10400;53.198;6.592;2022-08-21T08:13:02;20.70;99.90
20483;DHT22;10400;53.198;6.592;2022-08-21T08:15:28;20.90;99.90
20483;DHT22;10400;53.198;6.592;2022-08-21T08:17:55;20.90;99.90
20483;DHT22;10400;53.198;6.592;2022-08-21T08:20:21;21.00;99.90
20483;DHT22;10400;53.198;6.592;2022-08-21T08:22:48;21.00;99.90
20483;DHT22;10400;53.198;6.592;2022-08-21T08:25:15;21.00;99.90
20483;DHT22;10400;53.198;6.592;2022-08-21T08:27:42;21.10;99.90
20483;DHT22;10400;53.198;6.592;2022-08-21T08:30:10;21.10;99.90
20483;DHT22;10400;53.198;6.592;2022-08-21T08:32:36;21.30;99.90
20483;DHT22;10400;53.198;6.592;2022-08-21T08:35:03;21.40;99.90
20483;DHT22;10400;53.198;6.592;2022-08-21T08:37:29;21.30;99.90
20483;DHT22;10400;53.198;6.592;2022-08-21T08:39:54;21.30;99.90
20483;DHT22;10400;53.198;6.592;2022-08-21T08:42:32;21.30;99.90
20483;DHT22;10400;53.198;6.592;2022-08-21T08:45:08;21.40;99.90
20483;DHT22;10400;53.198;6.592;2022-08-21T08:47:39;21.60;99.90
20483;DHT22;10400;53.198;6.592;2022-08-21T08:50:48;21.70;99.90
20483;DHT22;10400;53.198;6.592;2022-08-21T08:53:25;21.50;99.90
20483;DHT22;10400;53.198;6.592;2022-08-21T08:55:53;21.60;99.90
20483;DHT22;10400;53.198;6.592;2022-08-21T08:58:34;21.80;99.90
20483;DHT22;10400;53.198;6.592;2022-08-21T09:01:06;21.80;99.90
20483;DHT22;10400;53.198;6.592;2022-08-21T09:03:37;22.00;99.90
20483;DHT22;10400;53.198;6.592;2022-08-21T09:14:08;22.30;99.90
20483;DHT22;10400;53.198;6.592;2022-08-21T09:25:12;23.00;99.90
20483;DHT22;10400;53.198;6.592;2022-08-21T09:27:40;22.80;99.90
20483;DHT22;10400;53.198;6.592;2022-08-21T09:30:07;22.80;99.90
20483;DHT22;10400;53.198;6.592;2022-08-21T09:32:36;22.80;99.90
20483;DHT22;10400;53.198;6.592;2022-08-21T09:35:14;22.80;99.90
20483;DHT22;10400;53.198;6.592;2022-08-21T09:37:57;23.00;99.90
20483;DHT22;10400;53.198;6.592;2022-08-21T09:40:43;22.90;99.90
20483;DHT22;10400;53.198;6.592;2022-08-21T09:43:18;23.00;99.90
20483;DHT22;10400;53.198;6.592;2022-08-21T09:45:46;23.00;99.90
20483;DHT22;10400;53.198;6.592;2022-08-21T09:48:21;23.10;99.90
20483;DHT22;10400;53.198;6.592;2022-08-21T09:50:48;22.80;99.90
20483;DHT22;10400;53.198;6.592;2022-08-21T09:53:29;22.60;99.90
20483;DHT22;10400;53.198;6.592;2022-08-21T09:56:04;22.60;99.90
20483;DHT22;10400;53.198;6.592;2022-08-21T09:58:50;22.70;99.90
20483;DHT22;10400;53.198;6.592;2022-08-21T10:01:24;22.70;99.90
20483;DHT22;10400;53.198;6.592;2022-08-21T10:04:10;22.90;99.90
20483;DHT22;10400;53.198;6.592;2022-08-21T10:06:36;23.10;99.90
20483;DHT22;10400;53.198;6.592;2022-08-21T10:09:12;23.20;99.90
20483;DHT22;10400;53.198;6.592;2022-08-21T10:11:39;23.30;99.90
20483;DHT22;10400;53.198;6.592;2022-08-21T10:14:13;23.50;99.90
20483;DHT22;10400;53.198;6.592;2022-08-21T10:19:55;23.90;99.90
20483;DHT22;10400;53.198;6.592;2022-08-21T10:22:46;23.60;99.90
20483;DHT22;10400;53.198;6.592;2022-08-21T10:25:36;23.80;99.90
20483;DHT22;10400;53.198;6.592;2022-08-21T10:28:05;23.90;99.90
20483;DHT22;10400;53.198;6.592;2022-08-21T10:35:56;24.10;99.90
20483;DHT22;10400;53.198;6.592;2022-08-21T10:41:39;23.90;99.90
20483;DHT22;10400;53.198;6.592;2022-08-21T10:49:53;23.50;99.90
20483;DHT22;10400;53.198;6.592;2022-08-21T10:55:22;23.00;99.90
20483;DHT22;10400;53.198;6.592;2022-08-21T10:58:10;22.80;99.90
20483;DHT22;10400;53.198;6.592;2022-08-21T11:00:46;22.70;99.90
20483;DHT22;10400;53.198;6.592;2022-08-21T11:06:19;22.60;99.90
20483;DHT22;10400;53.198;6.592;2022-08-21T11:08:51;22.70;99.90
20483;DHT22;10400;53.198;6.592;2022-08-21T11:11:26;22.50;99.90
20483;DHT22;10400;53.198;6.592;2022-08-21T11:13:59;22.50;99.90
20483;DHT22;10400;53.198;6.592;2022-08-21T11:16:42;22.60;99.90
20483;DHT22;10400;53.198;6.592;2022-08-21T11:21:57;22.70;99.90
20483;DHT22;10400;53.198;6.592;2022-08-21T11:24:29;22.60;99.90
20483;DHT22;10400;53.198;6.592;2022-08-21T11:30:13;22.30;99.90
20483;DHT22;10400;53.198;6.592;2022-08-21T11:45:50;22.40;99.90
20483;DHT22;10400;53.198;6.592;2022-08-21T11:51:40;23.30;99.90
20483;DHT22;10400;53.198;6.592;2022-08-21T11:57:01;24.10;99.90
20483;DHT22;10400;53.198;6.592;2022-08-21T11:59:38;23.90;99.90
20483;DHT22;10400;53.198;6.592;2022-08-21T12:02:11;23.70;99.90
20483;DHT22;10400;53.198;6.592;2022-08-21T12:04:47;23.60;99.90
20483;DHT22;10400;53.198;6.592;2022-08-21T12:07:30;23.70;99.90
20483;DHT22;10400;53.198;6.592;2022-08-21T12:09:57;23.60;99.90
20483;DHT22;10400;53.198;6.592;2022-08-21T12:12:34;23.70;99.90
20483;DHT22;10400;53.198;6.592;2022-08-21T12:20:32;23.70;99.90
20483;DHT22;10400;53.198;6.592;2022-08-21T12:23:25;23.70;99.90
20483;DHT22;10400;53.198;6.592;2022-08-21T12:26:22;23.40;99.90
20483;DHT22;10400;53.198;6.592;2022-08-21T12:28:49;23.60;99.90
20483;DHT22;10400;53.198;6.592;2022-08-21T12:31:25;24.00;99.90
20483;DHT22;10400;53.198;6.592;2022-08-21T12:33:55;24.20;99.90
20483;DHT22;10400;53.198;6.592;2022-08-21T12:36:25;24.40;99.90
20483;DHT22;10400;53.198;6.592;2022-08-21T12:39:03;24.60;99.90
20483;DHT22;10400;53.198;6.592;2022-08-21T12:41:57;24.70;99.90
20483;DHT22;10400;53.198;6.592;2022-08-21T12:47:12;24.70;99.90
20483;DHT22;10400;53.198;6.592;2022-08-21T12:49:52;24.60;99.90
20483;DHT22;10400;53.198;6.592;2022-08-21T12:52:30;24.70;99.90
20483;DHT22;10400;53.198;6.592;2022-08-21T12:54:58;25.10;99.90
20483;DHT22;10400;53.198;6.592;2022-08-21T12:57:30;25.20;99.90
20483;DHT22;10400;53.198;6.592;2022-08-21T13:00:00;25.00;99.90
20483;DHT22;10400;53.198;6.592;2022-08-21T13:02:30;24.80;99.90
20483;DHT22;10400;53.198;6.592;2022-08-21T13:04:57;25.00;99.90
20483;DHT22;10400;53.198;6.592;2022-08-21T13:07:29;24.80;99.90
20483;DHT22;10400;53.198;6.592;2022-08-21T13:10:03;24.70;99.90
20483;DHT22;10400;53.198;6.592;2022-08-21T13:12:30;25.00;99.90
20483;DHT22;10400;53.198;6.592;2022-08-21T13:15:01;25.10;99.90
20483;DHT22;10400;53.198;6.592;2022-08-21T13:17:33;25.10;99.90
20483;DHT22;10400;53.198;6.592;2022-08-21T13:20:07;24.80;99.90
20483;DHT22;10400;53.198;6.592;2022-08-21T13:22:40;24.60;99.90
20483;DHT22;10400;53.198;6.592;2022-08-21T13:25:11;24.30;99.90
20483;DHT22;10400;53.198;6.592;2022-08-21T13:27:37;24.20;99.90
20483;DHT22;10400;53.198;6.592;2022-08-21T13:30:23;24.10;99.90
20483;DHT22;10400;53.198;6.592;2022-08-21T13:32:52;24.30;99.90
20483;DHT22;10400;53.198;6.592;2022-08-21T13:35:20;24.20;99.90
20483;DHT22;10400;53.198;6.592;2022-08-21T13:37:47;24.10;99.90
20483;DHT22;10400;53.198;6.592;2022-08-21T13:40:17;24.10;99.90
20483;DHT22;10400;53.198;6.592;2022-08-21T13:42:46;24.00;99.90
20483;DHT22;10400;53.198;6.592;2022-08-21T13:45:24;24.00;99.90
20483;DHT22;10400;53.198;6.592;2022-08-21T13:47:51;23.90;99.90
20483;DHT22;10400;53.198;6.592;2022-08-21T13:50:19;24.10;99.90
20483;DHT22;10400;53.198;6.592;2022-08-21T13:53:01;24.20;99.90
20483;DHT22;10400;53.198;6.592;2022-08-21T13:55:35;24.10;99.90
20483;DHT22;10400;53.198;6.592;2022-08-21T13:58:03;24.20;99.90
20483;DHT22;10400;53.198;6.592;2022-08-21T14:00:30;24.20;99.90
20483;DHT22;10400;53.198;6.592;2022-08-21T14:03:06;24.30;99.90
20483;DHT22;10400;53.198;6.592;2022-08-21T14:05:37;24.10;99.90
20483;DHT22;10400;53.198;6.592;2022-08-21T14:10:35;24.40;99.90
20483;DHT22;10400;53.198;6.592;2022-08-21T14:13:04;24.80;99.90
20483;DHT22;10400;53.198;6.592;2022-08-21T14:15:33;25.00;99.90
20483;DHT22;10400;53.198;6.592;2022-08-21T14:18:15;25.00;99.90
20483;DHT22;10400;53.198;6.592;2022-08-21T14:20:42;24.60;99.90
20483;DHT22;10400;53.198;6.592;2022-08-21T14:23:08;24.40;99.90
20483;DHT22;10400;53.198;6.592;2022-08-21T14:25:40;24.30;99.90
20483;DHT22;10400;53.198;6.592;2022-08-21T14:30:54;24.20;99.90
20483;DHT22;10400;53.198;6.592;2022-08-21T14:33:32;24.20;99.90
20483;DHT22;10400;53.198;6.592;2022-08-21T14:35:58;24.30;99.90
20483;DHT22;10400;53.198;6.592;2022-08-21T14:38:26;24.30;99.90
20483;DHT22;10400;53.198;6.592;2022-08-21T14:40:54;24.20;99.90
20483;DHT22;10400;53.198;6.592;2022-08-21T14:43:21;24.30;99.90
20483;DHT22;10400;53.198;6.592;2022-08-21T14:45:47;24.50;99.90
20483;DHT22;10400;53.198;6.592;2022-08-21T14:48:13;24.80;99.90
20483;DHT22;10400;53.198;6.592;2022-08-21T14:50:39;25.10;99.90
20483;DHT22;10400;53.198;6.592;2022-08-21T14:53:07;24.90;99.90
20483;DHT22;10400;53.198;6.592;2022-08-21T14:55:33;24.80;99.90
20483;DHT22;10400;53.198;6.592;2022-08-21T14:58:22;24.80;99.90
20483;DHT22;10400;53.198;6.592;2022-08-21T15:00:49;24.80;99.90
20483;DHT22;10400;53.198;6.592;2022-08-21T15:03:15;24.70;99.90
20483;DHT22;10400;53.198;6.592;2022-08-21T15:05:40;24.70;99.90
20483;DHT22;10400;53.198;6.592;2022-08-21T15:08:06;24.70;99.90
20483;DHT22;10400;53.198;6.592;2022-08-21T15:10:33;24.80;99.90
20483;DHT22;10400;53.198;6.592;2022-08-21T15:12:59;25.10;99.90
20483;DHT22;10400;53.198;6.592;2022-08-21T15:15:25;25.40;99.90
20483;DHT22;10400;53.198;6.592;2022-08-21T15:17:51;25.40;99.90
20483;DHT22;10400;53.198;6.592;2022-08-21T15:20:17;25.30;99.90
20483;DHT22;10400;53.198;6.592;2022-08-21T15:22:42;25.20;99.90
20483;DHT22;10400;53.198;6.592;2022-08-21T15:25:08;25.10;99.90
20483;DHT22;10400;53.198;6.592;2022-08-21T15:27:34;24.80;99.90
20483;DHT22;10400;53.198;6.592;2022-08-21T15:30:02;24.60;99.90
20483;DHT22;10400;53.198;6.592;2022-08-21T15:32:28;24.30;99.90
20483;DHT22;10400;53.198;6.592;2022-08-21T15:34:56;24.50;99.90
20483;DHT22;10400;53.198;6.592;2022-08-21T15:37:23;24.80;99.90
20483;DHT22;10400;53.198;6.592;2022-08-21T15:39:50;24.90;99.90
20483;DHT22;10400;53.198;6.592;2022-08-21T15:42:17;25.10;99.90
20483;DHT22;10400;53.198;6.592;2022-08-21T15:44:44;25.20;99.90
20483;DHT22;10400;53.198;6.592;2022-08-21T15:47:14;25.10;99.90
20483;DHT22;10400;53.198;6.592;2022-08-21T15:49:41;25.10;99.90
20483;DHT22;10400;53.198;6.592;2022-08-21T15:52:17;24.70;99.90
20483;DHT22;10400;53.198;6.592;2022-08-21T15:54:43;24.50;99.90
20483;DHT22;10400;53.198;6.592;2022-08-21T15:57:13;24.60;99.90
20483;DHT22;10400;53.198;6.592;2022-08-21T15:59:42;24.60;99.90
20483;DHT22;10400;53.198;6.592;2022-08-21T16:02:35;24.30;99.90
20483;DHT22;10400;53.198;6.592;2022-08-21T16:05:01;23.90;99.90
20483;DHT22;10400;53.198;6.592;2022-08-21T16:07:27;23.80;99.90
20483;DHT22;10400;53.198;6.592;2022-08-21T16:09:53;24.00;99.90
20483;DHT22;10400;53.198;6.592;2022-08-21T16:12:25;24.10;99.90
20483;DHT22;10400;53.198;6.592;2022-08-21T16:14:53;24.10;99.90
20483;DHT22;10400;53.198;6.592;2022-08-21T16:17:29;24.10;99.90
20483;DHT22;10400;53.198;6.592;2022-08-21T16:19:56;24.10;99.90
20483;DHT22;10400;53.198;6.592;2022-08-21T16:22:22;24.00;99.90
20483;DHT22;10400;53.198;6.592;2022-08-21T16:24:47;23.80;99.90
20483;DHT22;10400;53.198;6.592;2022-08-21T16:27:13;23.70;99.90
20483;DHT22;10400;53.198;6.592;2022-08-21T16:29:39;23.60;99.90
20483;DHT22;10400;53.198;6.592;2022-08-21T16:32:06;23.80;99.90
20483;DHT22;10400;53.198;6.592;2022-08-21T16:34:32;23.90;99.90
20483;DHT22;10400;53.198;6.592;2022-08-21T16:36:58;23.60;99.90
20483;DHT22;10400;53.198;6.592;2022-08-21T16:39:24;23.60;99.90
20483;DHT22;10400;53.198;6.592;2022-08-21T16:41:49;23.60;99.90
20483;DHT22;10400;53.198;6.592;2022-08-21T16:44:17;23.50;99.90
20483;DHT22;10400;53.198;6.592;2022-08-21T16:46:43;23.30;99.90
20483;DHT22;10400;53.198;6.592;2022-08-21T16:49:09;23.30;99.90
20483;DHT22;10400;53.198;6.592;2022-08-21T16:51:36;23.40;99.90
20483;DHT22;10400;53.198;6.592;2022-08-21T16:54:02;23.30;99.90
20483;DHT22;10400;53.198;6.592;2022-08-21T16:56:28;23.10;99.90
20483;DHT22;10400;53.198;6.592;2022-08-21T16:58:55;23.20;99.90
20483;DHT22;10400;53.198;6.592;2022-08-21T17:01:24;23.00;99.90
20483;DHT22;10400;53.198;6.592;2022-08-21T17:03:51;22.90;99.90